sensor_id;sensor_type;location;lat;lon;timestamp;temperature;humidity
51305;HTU21D;37392;50.964;6.952;2023-07-20T00:01:28;16.80;90.15
51305;HTU21D;37392;50.964;6.952;2023-07-20T00:03:54;16.85;89.99
51305;HTU21D;37392;50.964;6.952;2023-07-20T00:06:27;16.84;89.89
51305;HTU21D;37392;50.964;6.952;2023-07-20T00:08:55;16.86;89.95
51305;HTU21D;37392;50.964;6.952;2023-07-20T00:11:25;16.89;90.08
51305;HTU21D;37392;50.964;6.952;2023-07-20T00:13:51;16.90;89.86
51305;HTU21D;37392;50.964;6.952;2023-07-20T00:16:17;16.95;89.54
51305;HTU21D;37392;50.964;6.952;2023-07-20T00:18:43;17.03;89.47
51305;HTU21D;37392;50.964;6.952;2023-07-20T00:21:08;17.06;89.31
51305;HTU21D;37392;50.964;6.952;2023-07-20T00:23:34;17.11;89.03
51305;HTU21D;37392;50.964;6.952;2023-07-20T00:26:00;17.16;89.20
51305;HTU21D;37392;50.964;6.952;2023-07-20T00:28:26;17.18;89.09
51305;HTU21D;37392;50.964;6.952;2023-07-20T00:30:51;17.16;89.13
51305;HTU21D;37392;50.964;6.952;2023-07-20T00:33:17;17.17;89.21
51305;HTU21D;37392;50.964;6.952;2023-07-20T00:35:44;17.19;89.34
51305;HTU21D;37392;50.964;6.952;2023-07-20T00:38:12;17.34;89.27
51305;HTU21D;37392;50.964;6.952;2023-07-20T00:40:38;17.43;88.38
51305;HTU21D;37392;50.964;6.952;2023-07-20T00:43:03;17.51;88.06
51305;HTU21D;37392;50.964;6.952;2023-07-20T00:45:29;17.55;87.84
51305;HTU21D;37392;50.964;6.952;2023-07-20T00:47:55;17.51;87.61
51305;HTU21D;37392;50.964;6.952;2023-07-20T00:50:21;17.44;87.80
51305;HTU21D;37392;50.964;6.952;2023-07-20T00:52:48;17.38;88.22
51305;HTU21D;37392;50.964;6.952;2023-07-20T00:55:14;17.38;89.35
51305;HTU21D;37392;50.964;6.952;2023-07-20T00:57:40;17.35;90.17
51305;HTU21D;37392;50.964;6.952;2023-07-20T01:00:06;17.25;90.57
51305;HTU21D;37392;50.964;6.952;2023-07-20T01:02:32;17.15;90.88
51305;HTU21D;37392;50.964;6.952;2023-07-20T01:04:58;17.09;91.54
51305;HTU21D;37392;50.964;6.952;2023-07-20T01:07:32;16.99;91.74
51305;HTU21D;37392;50.964;6.952;2023-07-20T01:10:09;16.96;92.08
51305;HTU21D;37392;50.964;6.952;2023-07-20T01:12:48;17.03;91.84
51305;HTU21D;37392;50.964;6.952;2023-07-20T01:15:17;17.15;91.37
51305;HTU21D;37392;50.964;6.952;2023-07-20T01:17:43;17.32;91.15
51305;HTU21D;37392;50.964;6.952;2023-07-20T01:20:13;17.43;90.57
51305;HTU21D;37392;50.964;6.952;2023-07-20T01:23:12;17.50;90.57
51305;HTU21D;37392;50.964;6.952;2023-07-20T01:32:31;17.44;90.56
51305;HTU21D;37392;50.964;6.952;2023-07-20T01:34:58;17.39;90.91
51305;HTU21D;37392;50.964;6.952;2023-07-20T01:37:26;17.30;91.08
51305;HTU21D;37392;50.964;6.952;2023-07-20T01:39:55;17.31;91.97
51305;HTU21D;37392;50.964;6.952;2023-07-20T01:42:24;17.34;92.05
51305;HTU21D;37392;50.964;6.952;2023-07-20T01:44:53;17.38;91.84
51305;HTU21D;37392;50.964;6.952;2023-07-20T01:47:19;17.41;91.45
51305;HTU21D;37392;50.964;6.952;2023-07-20T01:49:44;17.39;91.62
51305;HTU21D;37392;50.964;6.952;2023-07-20T01:52:10;17.46;91.37
51305;HTU21D;37392;50.964;6.952;2023-07-20T01:54:36;17.49;91.09
51305;HTU21D;37392;50.964;6.952;2023-07-20T01:57:02;17.48;91.11
51305;HTU21D;37392;50.964;6.952;2023-07-20T01:59:28;17.46;90.98
51305;HTU21D;37392;50.964;6.952;2023-07-20T02:01:53;17.45;91.66
51305;HTU21D;37392;50.964;6.952;2023-07-20T02:04:19;17.40;91.75
51305;HTU21D;37392;50.964;6.952;2023-07-20T02:06:44;17.39;91.85
51305;HTU21D;37392;50.964;6.952;2023-07-20T02:09:10;17.44;91.86
51305;HTU21D;37392;50.964;6.952;2023-07-20T02:11:35;17.47;91.88
51305;HTU21D;37392;50.964;6.952;2023-07-20T02:14:01;17.38;91.76
51305;HTU21D;37392;50.964;6.952;2023-07-20T02:16:27;17.24;92.31
51305;HTU21D;37392;50.964;6.952;2023-07-20T02:18:52;17.08;92.91
51305;HTU21D;37392;50.964;6.952;2023-07-20T02:21:18;16.95;93.76
51305;HTU21D;37392;50.964;6.952;2023-07-20T02:23:44;16.79;94.51
51305;HTU21D;37392;50.964;6.952;2023-07-20T02:26:09;16.65;95.26
51305;HTU21D;37392;50.964;6.952;2023-07-20T02:28:35;16.51;96.23
51305;HTU21D;37392;50.964;6.952;2023-07-20T02:31:00;16.45;97.16
51305;HTU21D;37392;50.964;6.952;2023-07-20T02:33:26;16.39;97.79
51305;HTU21D;37392;50.964;6.952;2023-07-20T02:35:52;16.32;98.01
51305;HTU21D;37392;50.964;6.952;2023-07-20T02:38:18;16.22;98.61
51305;HTU21D;37392;50.964;6.952;2023-07-20T02:40:43;16.16;98.99
51305;HTU21D;37392;50.964;6.952;2023-07-20T02:43:09;16.07;99.26
51305;HTU21D;37392;50.964;6.952;2023-07-20T02:45:35;15.95;99.61
51305;HTU21D;37392;50.964;6.952;2023-07-20T02:48:01;15.96;100.35
51305;HTU21D;37392;50.964;6.952;2023-07-20T02:50:28;15.80;100.14
51305;HTU21D;37392;50.964;6.952;2023-07-20T02:52:53;15.76;100.93
51305;HTU21D;37392;50.964;6.952;2023-07-20T02:55:19;15.71;101.36
51305;HTU21D;37392;50.964;6.952;2023-07-20T02:57:45;15.75;101.83
51305;HTU21D;37392;50.964;6.952;2023-07-20T03:00:11;15.74;101.49
51305;HTU21D;37392;50.964;6.952;2023-07-20T03:02:40;15.75;101.89
51305;HTU21D;37392;50.964;6.952;2023-07-20T03:05:06;15.76;101.71
51305;HTU21D;37392;50.964;6.952;2023-07-20T03:07:32;15.71;101.48
51305;HTU21D;37392;50.964;6.952;2023-07-20T03:09:58;15.68;101.58
51305;HTU21D;37392;50.964;6.952;2023-07-20T03:12:24;15.68;101.88
51305;HTU21D;37392;50.964;6.952;2023-07-20T03:14:50;15.75;102.37
51305;HTU21D;37392;50.964;6.952;2023-07-20T03:17:15;15.83;102.34
51305;HTU21D;37392;50.964;6.952;2023-07-20T03:19:41;15.96;101.58
51305;HTU21D;37392;50.964;6.952;2023-07-20T03:22:07;16.04;101.27
51305;HTU21D;37392;50.964;6.952;2023-07-20T03:24:33;16.11;100.68
51305;HTU21D;37392;50.964;6.952;2023-07-20T03:26:59;16.13;99.98
51305;HTU21D;37392;50.964;6.952;2023-07-20T03:29:25;16.14;100.08
51305;HTU21D;37392;50.964;6.952;2023-07-20T03:31:50;16.15;99.91
51305;HTU21D;37392;50.964;6.952;2023-07-20T03:34:16;16.14;100.05
51305;HTU21D;37392;50.964;6.952;2023-07-20T03:36:42;16.12;100.19
51305;HTU21D;37392;50.964;6.952;2023-07-20T03:39:07;16.08;99.91
51305;HTU21D;37392;50.964;6.952;2023-07-20T03:41:33;16.04;99.87
51305;HTU21D;37392;50.964;6.952;2023-07-20T03:43:58;16.05;100.03
51305;HTU21D;37392;50.964;6.952;2023-07-20T03:46:24;16.08;100.19
51305;HTU21D;37392;50.964;6.952;2023-07-20T03:48:50;16.14;99.85
51305;HTU21D;37392;50.964;6.952;2023-07-20T03:51:15;16.19;99.61
51305;HTU21D;37392;50.964;6.952;2023-07-20T03:53:41;16.22;99.32
51305;HTU21D;37392;50.964;6.952;2023-07-20T03:56:07;16.22;98.93
51305;HTU21D;37392;50.964;6.952;2023-07-20T03:58:33;16.25;98.77
51305;HTU21D;37392;50.964;6.952;2023-07-20T04:00:58;16.31;98.68
51305;HTU21D;37392;50.964;6.952;2023-07-20T04:03:24;16.36;98.32
51305;HTU21D;37392;50.964;6.952;2023-07-20T04:05:53;16.42;97.86
51305;HTU21D;37392;50.964;6.952;2023-07-20T04:08:22;16.52;97.33
51305;HTU21D;37392;50.964;6.952;2023-07-20T04:10:48;16.61;97.37
51305;HTU21D;37392;50.964;6.952;2023-07-20T04:13:14;16.72;97.00
51305;HTU21D;37392;50.964;6.952;2023-07-20T04:15:39;16.78;96.46
51305;HTU21D;37392;50.964;6.952;2023-07-20T04:18:05;16.86;96.23
51305;HTU21D;37392;50.964;6.952;2023-07-20T04:20:31;16.91;95.53
51305;HTU21D;37392;50.964;6.952;2023-07-20T04:22:56;16.99;95.38
51305;HTU21D;37392;50.964;6.952;2023-07-20T04:25:22;17.08;94.95
51305;HTU21D;37392;50.964;6.952;2023-07-20T04:27:47;17.18;94.61
51305;HTU21D;37392;50.964;6.952;2023-07-20T04:30:13;17.22;94.30
51305;HTU21D;37392;50.964;6.952;2023-07-20T04:32:40;17.30;93.84
51305;HTU21D;37392;50.964;6.952;2023-07-20T04:35:09;17.32;93.95
51305;HTU21D;37392;50.964;6.952;2023-07-20T04:37:35;17.36;93.49
51305;HTU21D;37392;50.964;6.952;2023-07-20T04:40:01;17.41;93.33
51305;HTU21D;37392;50.964;6.952;2023-07-20T04:42:27;17.46;93.15
51305;HTU21D;37392;50.964;6.952;2023-07-20T04:44:52;17.55;92.89
51305;HTU21D;37392;50.964;6.952;2023-07-20T04:47:18;17.64;92.49
51305;HTU21D;37392;50.964;6.952;2023-07-20T04:49:43;17.74;91.99
51305;HTU21D;37392;50.964;6.952;2023-07-20T04:52:09;17.77;91.56
51305;HTU21D;37392;50.964;6.952;2023-07-20T04:54:35;17.87;91.37
51305;HTU21D;37392;50.964;6.952;2023-07-20T04:57:00;17.91;90.99
51305;HTU21D;37392;50.964;6.952;2023-07-20T04:59:26;18.00;90.63
51305;HTU21D;37392;50.964;6.952;2023-07-20T05:01:51;18.05;90.37
51305;HTU21D;37392;50.964;6.952;2023-07-20T05:04:17;18.09;90.01
51305;HTU21D;37392;50.964;6.952;2023-07-20T05:06:43;18.13;89.83
51305;HTU21D;37392;50.964;6.952;2023-07-20T05:09:09;18.17;89.42
51305;HTU21D;37392;50.964;6.952;2023-07-20T05:11:34;18.20;89.44
51305;HTU21D;37392;50.964;6.952;2023-07-20T05:14:00;18.24;89.30
51305;HTU21D;37392;50.964;6.952;2023-07-20T05:16:26;18.26;89.11
51305;HTU21D;37392;50.964;6.952;2023-07-20T05:18:51;18.28;89.19
51305;HTU21D;37392;50.964;6.952;2023-07-20T05:21:17;18.29;89.00
51305;HTU21D;37392;50.964;6.952;2023-07-20T05:23:42;18.39;88.78
51305;HTU21D;37392;50.964;6.952;2023-07-20T05:26:09;18.52;88.41
51305;HTU21D;37392;50.964;6.952;2023-07-20T05:28:34;18.71;87.84
51305;HTU21D;37392;50.964;6.952;2023-07-20T05:31:02;18.87;86.83
51305;HTU21D;37392;50.964;6.952;2023-07-20T05:33:28;19.01;86.38
51305;HTU21D;37392;50.964;6.952;2023-07-20T05:35:54;19.15;86.14
51305;HTU21D;37392;50.964;6.952;2023-07-20T05:38:19;19.30;85.80
51305;HTU21D;37392;50.964;6.952;2023-07-20T05:40:45;19.53;85.12
51305;HTU21D;37392;50.964;6.952;2023-07-20T05:43:12;19.77;84.03
51305;HTU21D;37392;50.964;6.952;2023-07-20T05:45:37;19.82;83.32
51305;HTU21D;37392;50.964;6.952;2023-07-20T05:48:08;19.91;83.23
51305;HTU21D;37392;50.964;6.952;2023-07-20T05:50:36;20.02;82.66
51305;HTU21D;37392;50.964;6.952;2023-07-20T05:53:02;20.16;81.97
51305;HTU21D;37392;50.964;6.952;2023-07-20T05:55:27;20.40;81.66
51305;HTU21D;37392;50.964;6.952;2023-07-20T05:57:53;20.47;81.11
51305;HTU21D;37392;50.964;6.952;2023-07-20T06:00:21;20.58;80.91
51305;HTU21D;37392;50.964;6.952;2023-07-20T06:02:52;20.60;80.44
51305;HTU21D;37392;50.964;6.952;2023-07-20T06:05:18;20.76;80.27
51305;HTU21D;37392;50.964;6.952;2023-07-20T06:07:46;21.04;79.27
51305;HTU21D;37392;50.964;6.952;2023-07-20T06:10:11;21.34;78.30
51305;HTU21D;37392;50.964;6.952;2023-07-20T06:12:37;21.39;77.61
51305;HTU21D;37392;50.964;6.952;2023-07-20T06:15:04;21.43;77.27
51305;HTU21D;37392;50.964;6.952;2023-07-20T06:17:31;21.51;76.89
51305;HTU21D;37392;50.964;6.952;2023-07-20T06:19:57;21.45;76.89
51305;HTU21D;37392;50.964;6.952;2023-07-20T06:22:22;21.46;77.05
51305;HTU21D;37392;50.964;6.952;2023-07-20T06:24:48;21.54;76.67
51305;HTU21D;37392;50.964;6.952;2023-07-20T06:27:13;21.63;76.46
51305;HTU21D;37392;50.964;6.952;2023-07-20T06:29:39;21.78;75.81
51305;HTU21D;37392;50.964;6.952;2023-07-20T06:32:05;22.25;74.64
51305;HTU21D;37392;50.964;6.952;2023-07-20T06:34:32;23.07;72.28
51305;HTU21D;37392;50.964;6.952;2023-07-20T06:37:02;23.38;70.89
51305;HTU21D;37392;50.964;6.952;2023-07-20T06:39:29;23.46;70.19
51305;HTU21D;37392;50.964;6.952;2023-07-20T06:41:55;23.29;70.36
51305;HTU21D;37392;50.964;6.952;2023-07-20T06:44:20;23.07;70.90
51305;HTU21D;37392;50.964;6.952;2023-07-20T06:46:46;22.93;71.43
51305;HTU21D;37392;50.964;6.952;2023-07-20T06:49:24;22.85;71.65
51305;HTU21D;37392;50.964;6.952;2023-07-20T06:51:51;22.87;71.64
51305;HTU21D;37392;50.964;6.952;2023-07-20T06:54:16;22.81;71.42
51305;HTU21D;37392;50.964;6.952;2023-07-20T06:56:42;23.12;70.71
51305;HTU21D;37392;50.964;6.952;2023-07-20T06:59:07;23.68;69.49
51305;HTU21D;37392;50.964;6.952;2023-07-20T07:01:33;24.18;67.73
51305;HTU21D;37392;50.964;6.952;2023-07-20T07:03:58;24.56;66.14
51305;HTU21D;37392;50.964;6.952;2023-07-20T07:06:24;25.24;64.61
51305;HTU21D;37392;50.964;6.952;2023-07-20T07:08:50;26.03;61.94
51305;HTU21D;37392;50.964;6.952;2023-07-20T07:11:17;26.62;59.91
51305;HTU21D;37392;50.964;6.952;2023-07-20T07:13:43;27.10;58.62
51305;HTU21D;37392;50.964;6.952;2023-07-20T07:16:08;27.63;56.48
51305;HTU21D;37392;50.964;6.952;2023-07-20T07:18:34;27.36;56.72
51305;HTU21D;37392;50.964;6.952;2023-07-20T07:21:00;27.17;56.67
51305;HTU21D;37392;50.964;6.952;2023-07-20T07:23:25;26.70;57.93
51305;HTU21D;37392;50.964;6.952;2023-07-20T07:25:51;26.32;59.25
51305;HTU21D;37392;50.964;6.952;2023-07-20T07:28:16;26.36;59.64
51305;HTU21D;37392;50.964;6.952;2023-07-20T07:30:42;26.58;59.36
51305;HTU21D;37392;50.964;6.952;2023-07-20T07:33:07;26.91;58.56
51305;HTU21D;37392;50.964;6.952;2023-07-20T07:35:35;26.80;58.74
51305;HTU21D;37392;50.964;6.952;2023-07-20T07:38:01;26.51;59.26
51305;HTU21D;37392;50.964;6.952;2023-07-20T07:40:27;26.47;59.05
51305;HTU21D;37392;50.964;6.952;2023-07-20T07:42:52;26.57;57.82
51305;HTU21D;37392;50.964;6.952;2023-07-20T07:45:18;27.26;57.29
51305;HTU21D;37392;50.964;6.952;2023-07-20T07:47:43;28.30;54.84
51305;HTU21D;37392;50.964;6.952;2023-07-20T07:50:09;28.60;53.52
51305;HTU21D;37392;50.964;6.952;2023-07-20T07:52:35;28.37;53.83
51305;HTU21D;37392;50.964;6.952;2023-07-20T07:55:01;28.33;53.86
51305;HTU21D;37392;50.964;6.952;2023-07-20T07:57:29;28.53;52.96
51305;HTU21D;37392;50.964;6.952;2023-07-20T07:59:54;28.37;52.75
51305;HTU21D;37392;50.964;6.952;2023-07-20T08:02:20;28.25;53.04
51305;HTU21D;37392;50.964;6.952;2023-07-20T08:04:46;27.70;54.26
51305;HTU21D;37392;50.964;6.952;2023-07-20T08:07:12;27.13;55.45
51305;HTU21D;37392;50.964;6.952;2023-07-20T08:09:37;26.73;56.51
51305;HTU21D;37392;50.964;6.952;2023-07-20T08:12:03;26.41;57.42
51305;HTU21D;37392;50.964;6.952;2023-07-20T08:14:29;26.07;58.06
51305;HTU21D;37392;50.964;6.952;2023-07-20T08:16:55;25.89;58.14
51305;HTU21D;37392;50.964;6.952;2023-07-20T08:19:24;26.16;58.25
51305;HTU21D;37392;50.964;6.952;2023-07-20T08:21:49;27.54;54.79
51305;HTU21D;37392;50.964;6.952;2023-07-20T08:24:15;28.61;51.25
51305;HTU21D;37392;50.964;6.952;2023-07-20T08:26:41;28.54;50.66
51305;HTU21D;37392;50.964;6.952;2023-07-20T08:29:06;28.28;51.50
51305;HTU21D;37392;50.964;6.952;2023-07-20T08:31:32;27.65;52.84
51305;HTU21D;37392;50.964;6.952;2023-07-20T08:33:58;27.09;54.41
51305;HTU21D;37392;50.964;6.952;2023-07-20T08:36:23;26.93;55.62
51305;HTU21D;37392;50.964;6.952;2023-07-20T08:38:49;27.98;54.09
51305;HTU21D;37392;50.964;6.952;2023-07-20T08:41:15;29.49;50.65
51305;HTU21D;37392;50.964;6.952;2023-07-20T08:43:42;30.94;47.18
51305;HTU21D;37392;50.964;6.952;2023-07-20T08:46:10;32.05;44.09
51305;HTU21D;37392;50.964;6.952;2023-07-20T08:48:36;32.42;43.31
51305;HTU21D;37392;50.964;6.952;2023-07-20T08:51:04;33.34;41.48
51305;HTU21D;37392;50.964;6.952;2023-07-20T08:53:30;34.47;38.76
51305;HTU21D;37392;50.964;6.952;2023-07-20T08:55:57;34.97;37.48
51305;HTU21D;37392;50.964;6.952;2023-07-20T08:58:23;34.83;37.53
51305;HTU21D;37392;50.964;6.952;2023-07-20T09:00:52;34.77;38.20
51305;HTU21D;37392;50.964;6.952;2023-07-20T09:03:18;33.95;39.17
51305;HTU21D;37392;50.964;6.952;2023-07-20T09:05:44;33.05;40.71
51305;HTU21D;37392;50.964;6.952;2023-07-20T09:08:10;31.94;42.40
51305;HTU21D;37392;50.964;6.952;2023-07-20T09:10:35;31.21;43.65
51305;HTU21D;37392;50.964;6.952;2023-07-20T09:13:01;31.18;43.99
51305;HTU21D;37392;50.964;6.952;2023-07-20T09:15:28;31.58;42.23
51305;HTU21D;37392;50.964;6.952;2023-07-20T09:17:55;32.07;40.10
51305;HTU21D;37392;50.964;6.952;2023-07-20T09:20:20;32.33;39.23
51305;HTU21D;37392;50.964;6.952;2023-07-20T09:22:46;31.67;40.37
51305;HTU21D;37392;50.964;6.952;2023-07-20T09:25:14;31.76;40.95
51305;HTU21D;37392;50.964;6.952;2023-07-20T09:27:42;32.01;41.05
51305;HTU21D;37392;50.964;6.952;2023-07-20T09:30:09;32.17;40.26
51305;HTU21D;37392;50.964;6.952;2023-07-20T09:32:43;31.98;40.68
51305;HTU21D;37392;50.964;6.952;2023-07-20T09:35:16;31.64;41.58
51305;HTU21D;37392;50.964;6.952;2023-07-20T09:37:51;31.82;41.51
51305;HTU21D;37392;50.964;6.952;2023-07-20T09:40:20;32.24;41.20
51305;HTU21D;37392;50.964;6.952;2023-07-20T09:42:46;32.39;40.37
51305;HTU21D;37392;50.964;6.952;2023-07-20T09:45:13;33.11;39.60
51305;HTU21D;37392;50.964;6.952;2023-07-20T09:47:39;33.48;38.30
51305;HTU21D;37392;50.964;6.952;2023-07-20T09:50:06;34.23;37.66
51305;HTU21D;37392;50.964;6.952;2023-07-20T09:52:39;35.31;35.38
51305;HTU21D;37392;50.964;6.952;2023-07-20T09:55:10;36.59;33.55
51305;HTU21D;37392;50.964;6.952;2023-07-20T09:57:38;37.70;32.38
51305;HTU21D;37392;50.964;6.952;2023-07-20T10:00:08;38.83;31.19
51305;HTU21D;37392;50.964;6.952;2023-07-20T10:02:44;39.63;29.76
51305;HTU21D;37392;50.964;6.952;2023-07-20T10:05:14;38.76;30.21
51305;HTU21D;37392;50.964;6.952;2023-07-20T10:07:47;36.38;31.58
51305;HTU21D;37392;50.964;6.952;2023-07-20T10:10:18;34.89;33.79
51305;HTU21D;37392;50.964;6.952;2023-07-20T10:12:47;34.24;34.31
51305;HTU21D;37392;50.964;6.952;2023-07-20T10:15:23;33.34;35.53
51305;HTU21D;37392;50.964;6.952;2023-07-20T10:18:03;32.39;36.58
51305;HTU21D;37392;50.964;6.952;2023-07-20T10:20:35;31.46;38.26
51305;HTU21D;37392;50.964;6.952;2023-07-20T10:23:03;30.99;39.21
51305;HTU21D;37392;50.964;6.952;2023-07-20T10:25:30;30.53;40.10
51305;HTU21D;37392;50.964;6.952;2023-07-20T10:27:56;30.77;40.71
51305;HTU21D;37392;50.964;6.952;2023-07-20T10:30:23;32.45;38.29
51305;HTU21D;37392;50.964;6.952;2023-07-20T10:32:49;33.46;35.89
51305;HTU21D;37392;50.964;6.952;2023-07-20T10:35:17;34.04;35.28
51305;HTU21D;37392;50.964;6.952;2023-07-20T10:37:53;34.64;34.31
51305;HTU21D;37392;50.964;6.952;2023-07-20T10:40:33;34.52;34.07
51305;HTU21D;37392;50.964;6.952;2023-07-20T10:43:06;33.77;35.20
51305;HTU21D;37392;50.964;6.952;2023-07-20T10:45:42;34.25;34.86
51305;HTU21D;37392;50.964;6.952;2023-07-20T10:48:22;34.60;34.11
51305;HTU21D;37392;50.964;6.952;2023-07-20T10:51:14;33.76;34.79
51305;HTU21D;37392;50.964;6.952;2023-07-20T10:53:48;32.89;35.85
51305;HTU21D;37392;50.964;6.952;2023-07-20T10:56:19;33.04;36.38
51305;HTU21D;37392;50.964;6.952;2023-07-20T10:58:46;33.93;35.08
51305;HTU21D;37392;50.964;6.952;2023-07-20T11:01:18;34.55;34.91
51305;HTU21D;37392;50.964;6.952;2023-07-20T11:03:49;34.62;34.21
51305;HTU21D;37392;50.964;6.952;2023-07-20T11:09:04;32.85;36.88
51305;HTU21D;37392;50.964;6.952;2023-07-20T11:11:34;33.58;35.99
51305;HTU21D;37392;50.964;6.952;2023-07-20T11:14:03;33.78;35.02
51305;HTU21D;37392;50.964;6.952;2023-07-20T11:19:24;33.15;35.76
51305;HTU21D;37392;50.964;6.952;2023-07-20T11:24:21;31.73;37.53
51305;HTU21D;37392;50.964;6.952;2023-07-20T11:26:48;31.29;38.59
51305;HTU21D;37392;50.964;6.952;2023-07-20T11:29:19;30.78;38.59
51305;HTU21D;37392;50.964;6.952;2023-07-20T11:31:46;30.30;38.98
51305;HTU21D;37392;50.964;6.952;2023-07-20T11:34:18;30.03;39.37
51305;HTU21D;37392;50.964;6.952;2023-07-20T11:36:46;30.01;39.35
51305;HTU21D;37392;50.964;6.952;2023-07-20T11:39:18;30.40;38.81
51305;HTU21D;37392;50.964;6.952;2023-07-20T11:41:51;31.24;37.90
51305;HTU21D;37392;50.964;6.952;2023-07-20T11:44:20;31.30;37.24
51305;HTU21D;37392;50.964;6.952;2023-07-20T11:47:03;30.77;38.11
51305;HTU21D;37392;50.964;6.952;2023-07-20T11:49:47;31.37;37.66
51305;HTU21D;37392;50.964;6.952;2023-07-20T11:52:16;31.90;36.92
51305;HTU21D;37392;50.964;6.952;2023-07-20T11:54:43;32.17;36.12
51305;HTU21D;37392;50.964;6.952;2023-07-20T11:57:21;31.78;36.56
51305;HTU21D;37392;50.964;6.952;2023-07-20T11:59:57;31.45;36.93
51305;HTU21D;37392;50.964;6.952;2023-07-20T12:02:27;30.96;37.79
51305;HTU21D;37392;50.964;6.952;2023-07-20T12:04:54;30.26;39.15
51305;HTU21D;37392;50.964;6.952;2023-07-20T12:07:20;29.70;39.56
51305;HTU21D;37392;50.964;6.952;2023-07-20T12:10:09;29.23;40.26
51305;HTU21D;37392;50.964;6.952;2023-07-20T12:12:40;28.99;40.95
51305;HTU21D;37392;50.964;6.952;2023-07-20T12:15:19;28.88;41.76
51305;HTU21D;37392;50.964;6.952;2023-07-20T12:17:56;28.77;42.06
51305;HTU21D;37392;50.964;6.952;2023-07-20T12:20:29;28.47;42.12
51305;HTU21D;37392;50.964;6.952;2023-07-20T12:23:05;28.56;42.22
51305;HTU21D;37392;50.964;6.952;2023-07-20T12:25:42;28.43;42.67
51305;HTU21D;37392;50.964;6.952;2023-07-20T12:28:30;27.89;43.34
51305;HTU21D;37392;50.964;6.952;2023-07-20T12:31:10;27.76;43.85
51305;HTU21D;37392;50.964;6.952;2023-07-20T12:33:38;27.58;44.03
51305;HTU21D;37392;50.964;6.952;2023-07-20T12:36:04;27.27;44.74
51305;HTU21D;37392;50.964;6.952;2023-07-20T12:38:31;27.30;45.00
51305;HTU21D;37392;50.964;6.952;2023-07-20T12:40:57;27.35;44.96
51305;HTU21D;37392;50.964;6.952;2023-07-20T12:43:24;27.51;44.59
51305;HTU21D;37392;50.964;6.952;2023-07-20T12:45:50;27.59;44.37
51305;HTU21D;37392;50.964;6.952;2023-07-20T12:48:15;27.79;44.34
51305;HTU21D;37392;50.964;6.952;2023-07-20T12:50:41;27.91;43.97
51305;HTU21D;37392;50.964;6.952;2023-07-20T12:53:07;27.95;44.11
51305;HTU21D;37392;50.964;6.952;2023-07-20T12:55:33;27.97;43.96
51305;HTU21D;37392;50.964;6.952;2023-07-20T12:57:59;27.95;44.25
51305;HTU21D;37392;50.964;6.952;2023-07-20T13:00:24;28.21;44.08
51305;HTU21D;37392;50.964;6.952;2023-07-20T13:02:51;28.54;43.35
51305;HTU21D;37392;50.964;6.952;2023-07-20T13:05:17;28.75;42.81
51305;HTU21D;37392;50.964;6.952;2023-07-20T13:07:43;28.75;42.38
51305;HTU21D;37392;50.964;6.952;2023-07-20T13:10:10;28.67;42.39
51305;HTU21D;37392;50.964;6.952;2023-07-20T13:12:37;28.84;42.21
51305;HTU21D;37392;50.964;6.952;2023-07-20T13:15:05;29.09;42.04
51305;HTU21D;37392;50.964;6.952;2023-07-20T13:17:35;29.09;41.50
51305;HTU21D;37392;50.964;6.952;2023-07-20T13:20:06;28.94;41.69
51305;HTU21D;37392;50.964;6.952;2023-07-20T13:22:35;28.94;41.84
51305;HTU21D;37392;50.964;6.952;2023-07-20T13:25:02;29.04;41.79
51305;HTU21D;37392;50.964;6.952;2023-07-20T13:27:27;29.32;41.30
51305;HTU21D;37392;50.964;6.952;2023-07-20T13:29:53;29.36;41.54
51305;HTU21D;37392;50.964;6.952;2023-07-20T13:32:19;29.31;41.68
51305;HTU21D;37392;50.964;6.952;2023-07-20T13:34:45;29.53;41.12
51305;HTU21D;37392;50.964;6.952;2023-07-20T13:37:11;29.26;41.57
51305;HTU21D;37392;50.964;6.952;2023-07-20T13:39:37;29.37;41.27
51305;HTU21D;37392;50.964;6.952;2023-07-20T13:42:04;29.36;40.85
51305;HTU21D;37392;50.964;6.952;2023-07-20T13:44:33;29.48;40.68
51305;HTU21D;37392;50.964;6.952;2023-07-20T13:47:00;29.43;40.35
51305;HTU21D;37392;50.964;6.952;2023-07-20T13:49:26;29.21;40.52
51305;HTU21D;37392;50.964;6.952;2023-07-20T13:51:52;29.06;40.88
51305;HTU21D;37392;50.964;6.952;2023-07-20T13:54:17;29.05;40.95
51305;HTU21D;37392;50.964;6.952;2023-07-20T13:56:43;29.13;40.78
51305;HTU21D;37392;50.964;6.952;2023-07-20T13:59:09;28.95;40.75
51305;HTU21D;37392;50.964;6.952;2023-07-20T14:01:34;29.13;40.69
51305;HTU21D;37392;50.964;6.952;2023-07-20T14:04:01;29.41;40.44
51305;HTU21D;37392;50.964;6.952;2023-07-20T14:06:31;29.66;39.58
51305;HTU21D;37392;50.964;6.952;2023-07-20T14:08:58;29.68;39.55
51305;HTU21D;37392;50.964;6.952;2023-07-20T14:11:24;29.48;39.53
51305;HTU21D;37392;50.964;6.952;2023-07-20T14:13:51;29.23;40.01
51305;HTU21D;37392;50.964;6.952;2023-07-20T14:16:20;29.19;39.90
51305;HTU21D;37392;50.964;6.952;2023-07-20T14:18:47;28.99;40.17
51305;HTU21D;37392;50.964;6.952;2023-07-20T14:21:17;28.74;39.45
51305;HTU21D;37392;50.964;6.952;2023-07-20T14:23:48;28.49;39.52
51305;HTU21D;37392;50.964;6.952;2023-07-20T14:26:15;28.15;40.45
51305;HTU21D;37392;50.964;6.952;2023-07-20T14:28:42;28.05;40.99
51305;HTU21D;37392;50.964;6.952;2023-07-20T14:31:07;28.06;41.03
51305;HTU21D;37392;50.964;6.952;2023-07-20T14:33:33;28.16;40.49
51305;HTU21D;37392;50.964;6.952;2023-07-20T14:35:59;28.26;40.68
51305;HTU21D;37392;50.964;6.952;2023-07-20T14:38:30;28.43;40.59
51305;HTU21D;37392;50.964;6.952;2023-07-20T14:40:56;28.34;40.71
51305;HTU21D;37392;50.964;6.952;2023-07-20T14:43:22;28.23;41.33
51305;HTU21D;37392;50.964;6.952;2023-07-20T14:45:48;28.05;41.84
51305;HTU21D;37392;50.964;6.952;2023-07-20T14:48:14;27.88;42.28
51305;HTU21D;37392;50.964;6.952;2023-07-20T14:50:39;27.65;42.76
51305;HTU21D;37392;50.964;6.952;2023-07-20T14:53:05;27.34;43.37
51305;HTU21D;37392;50.964;6.952;2023-07-20T14:55:32;26.86;43.65
51305;HTU21D;37392;50.964;6.952;2023-07-20T14:57:58;26.49;44.62
51305;HTU21D;37392;50.964;6.952;2023-07-20T15:00:24;26.41;45.19
51305;HTU21D;37392;50.964;6.952;2023-07-20T15:02:50;26.40;45.22
51305;HTU21D;37392;50.964;6.952;2023-07-20T15:05:24;26.42;45.42
51305;HTU21D;37392;50.964;6.952;2023-07-20T15:07:52;26.34;45.58
51305;HTU21D;37392;50.964;6.952;2023-07-20T15:10:18;26.08;46.35
51305;HTU21D;37392;50.964;6.952;2023-07-20T15:12:44;25.71;47.14
51305;HTU21D;37392;50.964;6.952;2023-07-20T15:15:11;25.68;47.26
51305;HTU21D;37392;50.964;6.952;2023-07-20T15:17:39;25.89;47.26
51305;HTU21D;37392;50.964;6.952;2023-07-20T15:20:11;25.81;47.22
51305;HTU21D;37392;50.964;6.952;2023-07-20T15:22:38;25.92;46.89
51305;HTU21D;37392;50.964;6.952;2023-07-20T15:25:08;25.94;46.58
51305;HTU21D;37392;50.964;6.952;2023-07-20T15:27:36;26.03;46.86
51305;HTU21D;37392;50.964;6.952;2023-07-20T15:30:02;25.96;47.60
51305;HTU21D;37392;50.964;6.952;2023-07-20T15:32:27;25.79;47.96